createdAt,value
2022-09-09T07:38:17.890Z,24.40
2022-09-09T07:43:25.099Z,24.40
2022-09-09T07:48:32.646Z,24.50
2022-09-09T07:53:39.532Z,24.60
2022-09-09T07:58:47.148Z,24.60
2022-09-09T08:03:56.537Z,24.60
2022-09-09T08:09:00.896Z,24.60
2022-09-09T08:14:07.891Z,24.60
2022-09-09T08:19:15.145Z,24.70
2022-09-09T08:24:22.088Z,24.60
2022-09-09T08:29:29.465Z,24.60
2022-09-09T08:34:41.178Z,24.70
2022-09-09T08:39:43.232Z,24.70
2022-09-09T08:44:50.059Z,24.80
2022-09-09T08:49:57.330Z,24.70
2022-09-09T08:55:04.459Z,24.40
2022-09-09T09:00:12.381Z,24.20
2022-09-09T09:05:19.404Z,24.10
2022-09-09T09:10:41.303Z,24.10
2022-09-09T09:15:33.639Z,24.10
2022-09-09T09:20:40.857Z,24.20
2022-09-09T09:25:47.818Z,24.10
2022-09-09T09:30:55.589Z,24.00
2022-09-09T09:36:02.352Z,24.00
2022-09-09T09:41:09.538Z,24.10
2022-09-09T09:46:17.898Z,24.10
2022-09-09T09:51:24.068Z,24.40
2022-09-09T09:56:31.077Z,24.60
2022-09-09T10:01:38.223Z,24.70
2022-09-09T10:06:45.160Z,24.70
2022-09-09T10:11:52.960Z,24.60
2022-09-09T10:17:00.026Z,24.50
2022-09-09T10:22:07.193Z,24.40
2022-09-09T10:27:14.236Z,24.60
2022-09-09T10:32:21.478Z,24.80
2022-09-09T10:37:28.471Z,24.90
2022-09-09T10:42:35.636Z,24.80
2022-09-09T10:47:42.560Z,24.80
2022-09-09T10:52:49.782Z,24.80
2022-09-09T10:57:56.993Z,24.80
2022-09-09T11:03:04.314Z,24.90
2022-09-09T11:08:11.392Z,24.80
2022-09-09T11:13:18.901Z,24.90
2022-09-09T11:18:25.921Z,24.80
2022-09-09T11:23:33.596Z,24.80
2022-09-09T11:28:40.721Z,24.80
2022-09-09T11:33:48.025Z,24.80
2022-09-09T11:38:55.079Z,24.80
2022-09-09T11:44:02.162Z,24.90
2022-09-09T11:49:09.233Z,25.20
2022-09-09T11:54:16.609Z,25.20
2022-09-09T11:59:23.531Z,25.10
2022-09-09T12:04:30.926Z,25.20
2022-09-09T12:09:37.811Z,25.30
2022-09-09T12:14:45.522Z,25.30
2022-09-09T12:19:52.564Z,25.30
2022-09-09T12:24:59.855Z,25.30
2022-09-09T12:30:07.139Z,25.30
2022-09-09T12:35:14.462Z,25.20
2022-09-09T12:40:21.364Z,25.30
2022-09-09T12:45:29.057Z,25.30
2022-09-09T12:50:36.156Z,25.20
2022-09-09T12:55:43.625Z,25.10
2022-09-09T13:00:50.652Z,25.10
2022-09-09T13:05:58.056Z,25.00
2022-09-09T13:11:05.089Z,25.00
2022-09-09T13:31:34.271Z,24.90
2022-09-09T13:36:41.680Z,25.00
2022-09-09T13:41:48.691Z,25.00
2022-09-09T13:46:55.990Z,25.00
2022-09-09T13:52:02.996Z,25.10
2022-09-09T13:57:10.173Z,25.20
2022-09-09T14:02:17.191Z,25.20
2022-09-09T14:05:48.042Z,25.30
2022-09-09T14:10:55.535Z,25.40
2022-09-09T14:16:02.804Z,25.40
2022-09-09T14:21:10.174Z,25.20
2022-09-09T14:26:17.077Z,25.00
2022-09-09T14:31:24.531Z,25.00
2022-09-09T14:52:45.905Z,30.60
2022-09-09T14:57:42.747Z,30.50
2022-09-09T15:02:50.297Z,29.10
